createdAt,value
2022-08-04T00:00:06.789Z,97756.94
2022-08-04T00:02:53.873Z,97758.53
2022-08-04T00:05:37.180Z,97755.03
2022-08-04T00:08:24.096Z,97759.34
2022-08-04T00:11:00.718Z,97763.69
2022-08-04T00:14:02.346Z,97765.44
2022-08-04T00:16:39.579Z,97760.19
2022-08-04T00:19:18.649Z,97758.44
2022-08-04T00:21:57.998Z,97761.00
2022-08-04T00:24:32.706Z,97752.47
2022-08-04T00:27:07.706Z,97755.84
2022-08-04T00:29:41.187Z,97760.03
2022-08-04T00:32:33.894Z,97757.44
2022-08-04T00:35:11.047Z,97763.44
2022-08-04T00:37:46.730Z,97765.91
2022-08-04T00:40:29.468Z,97767.50
2022-08-04T00:43:14.603Z,97760.63
2022-08-04T00:46:28.670Z,97769.25
2022-08-04T00:49:33.872Z,97764.00
2022-08-04T00:52:31.715Z,97764.00
2022-08-04T00:55:29.268Z,97769.00
2022-08-04T00:58:30.818Z,97764.59
2022-08-04T01:01:07.740Z,97762.91
2022-08-04T01:03:56.067Z,97764.63
2022-08-04T01:06:50.964Z,97759.38
2022-08-04T01:09:46.149Z,97762.72
2022-08-04T01:12:45.404Z,97765.28
2022-08-04T01:15:27.131Z,97769.53
2022-08-04T01:18:06.487Z,97764.31
2022-08-04T01:20:48.984Z,97771.25
2022-08-04T01:24:13.240Z,97772.81
2022-08-04T01:26:58.371Z,97761.47
2022-08-04T01:29:46.681Z,97761.44
2022-08-04T01:32:32.204Z,97755.28
2022-08-04T01:35:15.503Z,97755.22
2022-08-04T01:38:03.080Z,97753.56
2022-08-04T01:40:56.044Z,97754.41
2022-08-04T01:43:31.084Z,97744.84
2022-08-04T01:46:07.038Z,97743.13
2022-08-04T01:48:42.035Z,97745.63
2022-08-04T01:51:15.514Z,97744.75
2022-08-04T01:53:48.607Z,97743.06
2022-08-04T01:56:23.754Z,97748.13
2022-08-04T01:58:59.241Z,97749.03
2022-08-04T02:01:37.946Z,97739.47
2022-08-04T02:04:21.602Z,97738.53
2022-08-04T02:07:11.424Z,97734.28
2022-08-04T02:10:03.036Z,97741.25
2022-08-04T02:12:54.520Z,97736.06
2022-08-04T02:15:39.014Z,97736.81
2022-08-04T02:18:23.180Z,97745.38
2022-08-04T02:21:00.510Z,97737.59
2022-08-04T02:23:37.958Z,97741.03
2022-08-04T02:26:22.263Z,97733.88
2022-08-04T02:29:05.333Z,97737.22
2022-08-04T02:31:45.422Z,97732.84
2022-08-04T02:34:27.180Z,97716.25
2022-08-04T02:37:01.773Z,97716.19
2022-08-04T02:39:48.268Z,97711.88
2022-08-04T02:42:23.205Z,97712.00
2022-08-04T02:45:00.468Z,97716.19
2022-08-04T02:48:23.666Z,97708.41
2022-08-04T02:50:31.011Z,97702.38
2022-08-04T02:53:09.974Z,97705.81
2022-08-04T02:55:50.402Z,97698.00
2022-08-04T02:58:29.076Z,97703.19
2022-08-04T03:01:02.480Z,97705.81
2022-08-04T03:03:41.867Z,97707.66
2022-08-04T03:07:33.543Z,97698.31
2022-08-04T03:10:54.836Z,97698.19
2022-08-04T03:14:10.618Z,97694.66
2022-08-04T03:20:46.543Z,97710.03
2022-08-04T03:24:06.367Z,97707.16
2022-08-04T03:27:01.853Z,97709.63
2022-08-04T03:30:08.763Z,97707.81
2022-08-04T03:33:10.307Z,97701.69
2022-08-04T03:36:14.279Z,97704.94
2022-08-04T03:39:18.615Z,97709.94
2022-08-04T03:42:40.722Z,97713.38
2022-08-04T03:45:46.679Z,97705.44
2022-08-04T03:48:59.544Z,97707.03
2022-08-04T03:52:01.572Z,97704.47
2022-08-04T03:55:26.855Z,97708.88
2022-08-04T03:58:46.261Z,97716.56
2022-08-04T04:02:01.925Z,97720.06
2022-08-04T04:05:09.170Z,97717.34
2022-08-04T04:08:19.098Z,97719.81
2022-08-04T04:11:57.403Z,97720.63
2022-08-04T04:14:50.728Z,97722.41
2022-08-04T04:17:50.854Z,97719.75
2022-08-04T04:20:55.431Z,97715.25
2022-08-04T04:24:03.857Z,97715.91
2022-08-04T04:26:57.433Z,97725.53
2022-08-04T04:29:54.715Z,97728.13
2022-08-04T04:32:42.748Z,97724.69
2022-08-04T04:35:35.741Z,97728.19
2022-08-04T04:38:43.361Z,97728.19
2022-08-04T04:41:38.043Z,97737.88
2022-08-04T04:44:48.419Z,97728.41
2022-08-04T04:47:43.363Z,97731.84
2022-08-04T04:50:38.209Z,97726.66
2022-08-04T04:53:24.519Z,97730.25
2022-08-04T04:56:07.462Z,97726.09
2022-08-04T04:58:42.098Z,97727.94
2022-08-04T05:01:51.622Z,97729.81
2022-08-04T05:05:16.287Z,97728.19
2022-08-04T05:08:43.820Z,97732.00
2022-08-04T05:11:56.855Z,97733.13
2022-08-04T05:14:41.605Z,97739.50
2022-08-04T05:17:25.237Z,97745.00
2022-08-04T05:20:06.489Z,97746.13
2022-08-04T05:22:47.515Z,97745.66
2022-08-04T05:25:26.903Z,97745.66
2022-08-04T05:28:07.346Z,97734.63
2022-08-04T05:30:48.644Z,97733.69
2022-08-04T05:33:30.530Z,97738.59
2022-08-04T05:36:20.461Z,97737.13
2022-08-04T05:39:03.293Z,97742.47
2022-08-04T05:41:45.731Z,97735.50
2022-08-04T05:44:24.004Z,97735.28
2022-08-04T05:46:59.610Z,97729.88
2022-08-04T05:49:35.601Z,97737.53
2022-08-04T05:52:11.622Z,97732.81
2022-08-04T05:54:45.945Z,97728.97
2022-08-04T05:57:20.894Z,97733.16
2022-08-04T05:59:56.800Z,97736.50
2022-08-04T06:02:31.603Z,97734.28
2022-08-04T06:05:08.414Z,97740.94
2022-08-04T06:08:12.542Z,97741.50
2022-08-04T06:10:39.272Z,97735.59
2022-08-04T06:13:47.463Z,97737.00
2022-08-04T06:16:28.580Z,97742.75
2022-08-04T06:19:59.527Z,97729.91
2022-08-04T06:22:05.683Z,97727.84
2022-08-04T06:24:42.526Z,97727.13
2022-08-04T06:27:16.913Z,97731.69
2022-08-04T06:29:51.950Z,97733.63
2022-08-04T06:32:34.708Z,97727.22
2022-08-04T06:35:12.255Z,97730.44
2022-08-04T06:37:49.178Z,97730.19
2022-08-04T06:40:31.258Z,97724.53
2022-08-04T06:43:08.811Z,97730.72
2022-08-04T06:45:43.979Z,97730.31
2022-08-04T06:48:19.464Z,97728.91
2022-08-04T06:51:26.385Z,97731.06
2022-08-04T06:53:49.046Z,97736.28
2022-08-04T06:56:24.134Z,97739.81
2022-08-04T06:58:59.184Z,97732.47
2022-08-04T07:01:33.888Z,97733.19
2022-08-04T07:04:07.511Z,97726.88
2022-08-04T07:06:40.977Z,97732.94
2022-08-04T07:09:15.884Z,97727.03
2022-08-04T07:11:51.189Z,97731.94
2022-08-04T07:14:27.097Z,97721.09
2022-08-04T07:17:01.166Z,97726.78
2022-08-04T07:19:34.924Z,97723.97
2022-08-04T07:22:24.346Z,97722.94
2022-08-04T07:25:01.338Z,97724.50
2022-08-04T07:27:48.421Z,97724.31
2022-08-04T07:30:24.874Z,97717.44
2022-08-04T07:32:58.603Z,97727.84
2022-08-04T07:36:10.029Z,97721.38
2022-08-04T07:38:27.312Z,97732.69
2022-08-04T07:41:03.911Z,97723.25
2022-08-04T07:43:38.988Z,97725.22
2022-08-04T07:46:12.664Z,97722.97
2022-08-04T07:48:46.479Z,97719.78
2022-08-04T07:51:20.068Z,97715.81
2022-08-04T07:53:56.178Z,97717.84
2022-08-04T07:56:32.387Z,97708.75
2022-08-04T07:59:06.703Z,97709.94
2022-08-04T08:01:41.424Z,97716.88
2022-08-04T08:04:16.004Z,97710.94
2022-08-04T08:06:49.376Z,97700.63
2022-08-04T08:09:22.846Z,97703.91
2022-08-04T08:12:36.284Z,97703.09
2022-08-04T08:14:51.230Z,97708.97
2022-08-04T08:17:25.709Z,97702.22
2022-08-04T08:19:58.948Z,97693.97
2022-08-04T08:22:33.198Z,97706.13
2022-08-04T08:25:07.598Z,97694.00
2022-08-04T08:27:43.862Z,97690.13
2022-08-04T08:30:31.485Z,97694.03
2022-08-04T08:33:10.523Z,97690.47
2022-08-04T08:35:54.904Z,97682.72
2022-08-04T08:38:44.942Z,97686.78
2022-08-04T08:41:53.192Z,97689.66
2022-08-04T08:45:17.823Z,97687.19
2022-08-04T08:48:34.951Z,97689.75
2022-08-04T08:51:34.318Z,97685.94
2022-08-04T08:54:34.946Z,97700.69
2022-08-04T08:57:59.413Z,97699.50
2022-08-04T09:00:48.979Z,97696.28
2022-08-04T09:04:31.615Z,97699.38
2022-08-04T09:07:27.794Z,97694.84
2022-08-04T09:10:12.997Z,97698.09
2022-08-04T09:12:59.102Z,97695.25
2022-08-04T09:15:41.275Z,97683.81
2022-08-04T09:18:23.467Z,97694.34
2022-08-04T09:21:08.013Z,97695.16
2022-08-04T09:23:50.721Z,97693.19
2022-08-04T09:26:35.865Z,97694.06
2022-08-04T09:29:15.729Z,97689.22
2022-08-04T09:32:07.339Z,97689.16
2022-08-04T09:35:07.588Z,97694.16
2022-08-04T09:37:51.331Z,97692.34
2022-08-04T09:40:35.657Z,97682.56
2022-08-04T09:43:59.423Z,97688.66
2022-08-04T09:46:36.245Z,97685.00
2022-08-04T09:49:17.520Z,97678.72
2022-08-04T09:52:12.997Z,97680.56
2022-08-04T09:55:03.870Z,97673.81
2022-08-04T09:57:53.450Z,97688.81
2022-08-04T10:00:40.706Z,97677.44
2022-08-04T10:03:20.232Z,97684.69
2022-08-04T10:06:21.165Z,97670.22
2022-08-04T10:09:07.239Z,97671.69
2022-08-04T10:12:10.308Z,97667.88
2022-08-04T10:14:54.015Z,97663.78
2022-08-04T10:18:05.482Z,97662.88
2022-08-04T10:20:59.975Z,97656.75
2022-08-04T10:23:55.111Z,97653.19
2022-08-04T10:26:38.242Z,97657.47
2022-08-04T10:29:19.046Z,97649.47
2022-08-04T10:32:02.092Z,97643.88
2022-08-04T10:34:44.548Z,97641.03
2022-08-04T10:38:00.335Z,97638.31
2022-08-04T10:40:43.142Z,97643.88
2022-08-04T10:43:29.239Z,97632.84
2022-08-04T10:46:09.509Z,97632.84
2022-08-04T10:48:48.896Z,97634.41
2022-08-04T10:51:30.371Z,97628.09
2022-08-04T10:54:30.960Z,97635.59
2022-08-04T10:57:12.106Z,97630.13
2022-08-04T11:00:00.603Z,97631.47
2022-08-04T11:02:46.497Z,97636.13
2022-08-04T11:05:30.567Z,97630.09
2022-08-04T11:08:14.365Z,97635.75
2022-08-04T11:10:58.667Z,97634.50
2022-08-04T11:13:48.591Z,97630.31
2022-08-04T11:16:28.171Z,97631.34
2022-08-04T11:19:15.309Z,97633.50
2022-08-04T11:21:56.683Z,97621.53
2022-08-04T11:24:38.475Z,97628.56
2022-08-04T11:27:17.550Z,97624.59
2022-08-04T11:30:02.864Z,97621.41
2022-08-04T11:32:45.229Z,97627.81
2022-08-04T11:35:29.104Z,97625.44
2022-08-04T11:38:12.855Z,97621.34
2022-08-04T11:41:02.130Z,97633.66
2022-08-04T11:44:02.766Z,97626.75
2022-08-04T11:46:43.658Z,97625.22
2022-08-04T11:49:27.721Z,97627.44
2022-08-04T11:52:05.118Z,97628.72
2022-08-04T11:54:39.432Z,97620.66
2022-08-04T11:57:12.756Z,97621.94
2022-08-04T11:59:49.172Z,97628.78
2022-08-04T12:02:49.955Z,97622.78
2022-08-04T12:05:36.919Z,97616.69
2022-08-04T12:08:34.576Z,97614.28
2022-08-04T12:11:25.245Z,97614.78
2022-08-04T12:14:14.744Z,97610.75
2022-08-04T12:16:59.054Z,97604.16
2022-08-04T12:19:57.058Z,97611.75
2022-08-04T12:22:38.742Z,97610.31
2022-08-04T12:25:22.922Z,97600.72
2022-08-04T12:28:02.169Z,97595.00
2022-08-04T12:30:59.579Z,97609.75
2022-08-04T12:34:04.615Z,97600.84
2022-08-04T12:36:43.800Z,97599.75
2022-08-04T12:39:20.424Z,97595.06
2022-08-04T12:42:04.954Z,97592.22
2022-08-04T12:44:41.878Z,97589.19
2022-08-04T12:47:27.402Z,97590.84
2022-08-04T12:50:05.392Z,97587.63
2022-08-04T12:53:31.898Z,97589.28
2022-08-04T12:56:08.146Z,97592.72
2022-08-04T12:58:46.631Z,97587.63
2022-08-04T13:02:08.770Z,97577.81
2022-08-04T13:04:21.625Z,97576.06
2022-08-04T13:07:02.330Z,97571.47
2022-08-04T13:09:38.591Z,97573.00
2022-08-04T13:12:16.230Z,97567.56
2022-08-04T13:14:54.366Z,97573.19
2022-08-04T13:17:49.631Z,97573.28
2022-08-04T13:20:27.797Z,97573.09
2022-08-04T13:23:14.389Z,97566.91
2022-08-04T13:26:44.847Z,97567.13
2022-08-04T13:28:47.315Z,97560.63
2022-08-04T13:31:24.453Z,97556.78
2022-08-04T13:34:08.475Z,97548.91
2022-08-04T13:36:56.701Z,97546.69
2022-08-04T13:39:32.205Z,97546.00
2022-08-04T13:42:11.948Z,97555.19
2022-08-04T13:44:49.909Z,97541.19
2022-08-04T13:47:29.863Z,97527.19
2022-08-04T13:50:27.428Z,97537.38
2022-08-04T13:53:04.388Z,97531.28
2022-08-04T13:55:38.377Z,97524.19
2022-08-04T13:58:20.354Z,97542.28
2022-08-04T14:01:01.172Z,97543.59
2022-08-04T14:03:54.514Z,97526.56
2022-08-04T14:06:31.706Z,97526.22
2022-08-04T14:09:15.376Z,97517.22
2022-08-04T14:12:09.987Z,97520.34
2022-08-04T14:14:48.734Z,97519.88
2022-08-04T14:17:30.211Z,97519.03
2022-08-04T14:20:06.821Z,97518.16
2022-08-04T14:22:40.043Z,97510.09
2022-08-04T14:25:16.789Z,97504.75
2022-08-04T14:27:54.293Z,97513.06
2022-08-04T14:30:30.898Z,97512.94
2022-08-04T14:34:01.550Z,97499.25
2022-08-04T14:36:04.582Z,97504.28
2022-08-04T14:38:51.754Z,97499.06
2022-08-04T14:41:29.519Z,97500.63
2022-08-04T14:44:07.313Z,97501.22
2022-08-04T14:46:52.462Z,97497.47
2022-08-04T14:49:26.672Z,97503.59
2022-08-04T14:52:03.096Z,97503.19
2022-08-04T14:54:36.783Z,97503.78
2022-08-04T14:57:10.187Z,97503.09
2022-08-04T14:59:59.756Z,97504.72
2022-08-04T15:02:36.117Z,97498.16
2022-08-04T15:06:01.911Z,97499.66
2022-08-04T15:08:04.682Z,97495.81
2022-08-04T15:10:39.225Z,97491.31
2022-08-04T15:13:14.376Z,97492.19
2022-08-04T15:16:06.459Z,97490.63
2022-08-04T15:18:40.558Z,97498.16
2022-08-04T15:21:15.552Z,97491.03
2022-08-04T15:23:50.639Z,97488.00
2022-08-04T15:26:30.158Z,97487.59
2022-08-04T15:29:16.240Z,97485.91
2022-08-04T15:32:05.740Z,97488.03
2022-08-04T15:34:49.278Z,97483.56
2022-08-04T15:37:29.935Z,97485.09
2022-08-04T15:40:14.007Z,97489.19
2022-08-04T15:42:50.614Z,97486.84
2022-08-04T15:46:02.225Z,97483.41
2022-08-04T15:48:28.908Z,97480.66
2022-08-04T15:51:14.655Z,97476.13
2022-08-04T15:54:28.123Z,97480.09
2022-08-04T15:57:07.913Z,97477.72
2022-08-04T16:00:01.664Z,97478.44
2022-08-04T16:02:44.211Z,97472.75
2022-08-04T16:05:39.174Z,97480.41
2022-08-04T16:08:17.512Z,97478.22
2022-08-04T16:10:51.818Z,97463.50
2022-08-04T16:13:26.236Z,97459.81
2022-08-04T16:16:03.653Z,97461.09
2022-08-04T16:18:43.796Z,97472.75
2022-08-04T16:21:24.653Z,97466.00
2022-08-04T16:24:19.111Z,97459.28
2022-08-04T16:26:56.158Z,97460.38
2022-08-04T16:29:35.162Z,97456.16
2022-08-04T16:32:17.315Z,97455.38
2022-08-04T16:34:59.659Z,97455.00
2022-08-04T16:37:35.573Z,97458.75
2022-08-04T16:40:36.447Z,97454.16
2022-08-04T16:43:13.632Z,97454.47
2022-08-04T16:45:52.691Z,97450.31
2022-08-04T16:48:28.293Z,97446.00
2022-08-04T16:51:06.424Z,97448.28
2022-08-04T16:54:02.763Z,97439.34
2022-08-04T16:56:36.395Z,97450.31
2022-08-04T16:59:10.747Z,97450.63
2022-08-04T17:01:52.092Z,97448.28
2022-08-04T17:04:30.839Z,97437.25
2022-08-04T17:07:06.669Z,97439.34
2022-08-04T17:09:51.064Z,97429.78
2022-08-04T17:12:29.941Z,97433.09
2022-08-04T17:15:03.280Z,97432.75
2022-08-04T17:18:05.789Z,97429.66
2022-08-04T17:21:01.459Z,97427.38
2022-08-04T17:24:15.488Z,97424.16
2022-08-04T17:26:40.036Z,97427.38
2022-08-04T17:29:18.209Z,97422.56
2022-08-04T17:31:53.796Z,97423.69
2022-08-04T17:34:28.518Z,97422.25
2022-08-04T17:37:38.070Z,97419.25
2022-08-04T17:40:09.992Z,97419.72
2022-08-04T17:42:45.261Z,97426.16
2022-08-04T17:48:24.527Z,97419.31
2022-08-04T17:51:17.171Z,97421.28
2022-08-04T17:54:02.716Z,97428.47
2022-08-04T17:56:51.393Z,97428.03
2022-08-04T17:59:52.911Z,97425.88
2022-08-04T18:02:32.447Z,97429.00
2022-08-04T18:05:11.684Z,97422.19
2022-08-04T18:08:38.951Z,97428.91
2022-08-04T18:10:52.139Z,97426.81
2022-08-04T18:13:29.656Z,97429.91
2022-08-04T18:16:05.530Z,97426.78
2022-08-04T18:18:38.658Z,97442.16
2022-08-04T18:21:11.791Z,97442.56
2022-08-04T18:23:50.949Z,97437.88
2022-08-04T18:26:24.369Z,97436.59
2022-08-04T18:28:57.532Z,97440.75
2022-08-04T18:31:35.826Z,97435.91
2022-08-04T18:34:14.290Z,97433.72
2022-08-04T18:36:59.232Z,97435.88
2022-08-04T18:40:09.588Z,97443.19
2022-08-04T18:42:27.939Z,97444.47
2022-08-04T18:45:12.903Z,97440.50
2022-08-04T18:47:54.377Z,97446.09
2022-08-04T18:51:09.296Z,97459.75
2022-08-04T18:53:26.137Z,97459.03
2022-08-04T18:56:20.055Z,97464.41
2022-08-04T18:59:10.588Z,97470.97
2022-08-04T19:02:13.400Z,97463.56
2022-08-04T19:04:37.214Z,97465.41
2022-08-04T19:08:01.458Z,97468.22
2022-08-04T19:10:07.626Z,97474.91
2022-08-04T19:13:00.868Z,97475.22
2022-08-04T19:15:34.952Z,97472.84
2022-08-04T19:18:10.490Z,97475.81
2022-08-04T19:20:43.719Z,97483.16
2022-08-04T19:24:32.128Z,97487.81
2022-08-04T19:26:27.929Z,97483.75
2022-08-04T19:29:03.666Z,97491.00
2022-08-04T19:31:41.981Z,97485.13
2022-08-04T19:34:15.208Z,97495.81
2022-08-04T19:36:48.348Z,97498.53
2022-08-04T19:39:22.653Z,97508.44
2022-08-04T19:42:04.606Z,97498.16
2022-08-04T19:48:16.418Z,97510.75
2022-08-04T19:50:28.568Z,97508.41
2022-08-04T19:53:01.800Z,97513.72
2022-08-04T19:55:38.380Z,97520.91
2022-08-04T19:58:11.811Z,97526.41
2022-08-04T20:00:51.471Z,97522.19
2022-08-04T20:04:09.175Z,97521.44
2022-08-04T20:06:18.345Z,97528.63
2022-08-04T20:08:52.405Z,97528.91
2022-08-04T20:11:27.340Z,97532.47
2022-08-04T20:14:00.498Z,97533.44
2022-08-04T20:16:36.894Z,97531.78
2022-08-04T20:19:13.810Z,97528.41
2022-08-04T20:21:55.219Z,97531.97
2022-08-04T20:24:39.384Z,97531.34
2022-08-04T20:27:17.708Z,97534.97
2022-08-04T20:29:55.653Z,97543.75
2022-08-04T20:32:30.282Z,97535.94
2022-08-04T20:35:03.494Z,97539.78
2022-08-04T20:37:55.094Z,97544.16
2022-08-04T20:40:33.335Z,97543.38
2022-08-04T20:43:06.443Z,97540.81
2022-08-04T20:45:56.562Z,97542.56
2022-08-04T20:48:33.811Z,97542.69
2022-08-04T20:51:07.642Z,97541.00
2022-08-04T20:53:53.028Z,97539.34
2022-08-04T20:56:31.013Z,97539.41
2022-08-04T21:01:58.353Z,97539.63
2022-08-04T21:04:35.655Z,97536.09
2022-08-04T21:07:10.880Z,97538.72
2022-08-04T21:09:51.194Z,97538.00
2022-08-04T21:12:28.586Z,97534.59
2022-08-04T21:15:13.904Z,97538.09
2022-08-04T21:17:59.454Z,97537.28
2022-08-04T21:20:42.710Z,97538.25
2022-08-04T21:23:16.735Z,97534.84
2022-08-04T21:25:58.074Z,97539.25
2022-08-04T21:28:31.792Z,97532.34
2022-08-04T21:31:11.070Z,97535.94
2022-08-04T21:33:54.799Z,97530.72
2022-08-04T21:36:29.412Z,97534.31
2022-08-04T21:39:04.309Z,97531.72
2022-08-04T21:42:19.718Z,97529.13
2022-08-04T21:44:37.251Z,97526.56
2022-08-04T21:50:04.643Z,97529.22
2022-08-04T21:52:39.175Z,97527.53
2022-08-04T21:55:12.821Z,97530.22
2022-08-04T21:57:45.944Z,97525.00
2022-08-04T22:00:22.936Z,97528.53
2022-08-04T22:02:57.947Z,97529.41
2022-08-04T22:05:32.827Z,97531.25
2022-08-04T22:08:07.577Z,97526.94
2022-08-04T22:10:53.486Z,97523.47
2022-08-04T22:13:52.651Z,97526.97
2022-08-04T22:16:19.639Z,97527.81
2022-08-04T22:18:56.557Z,97523.53
2022-08-04T22:24:30.017Z,97519.22
2022-08-04T22:27:03.185Z,97522.72
2022-08-04T22:29:44.888Z,97520.09
2022-08-04T22:32:18.194Z,97526.25
2022-08-04T22:34:53.959Z,97521.91
2022-08-04T22:37:36.229Z,97520.16
2022-08-04T22:40:19.469Z,97516.69
2022-08-04T22:42:52.614Z,97515.81
2022-08-04T22:45:28.802Z,97506.31
2022-08-04T22:48:17.282Z,97506.31
2022-08-04T22:50:51.303Z,97508.06
2022-08-04T22:53:24.439Z,97508.06
2022-08-04T22:56:09.613Z,97510.72
2022-08-04T22:58:51.066Z,97516.84
2022-08-04T23:01:24.749Z,97519.47
2022-08-04T23:04:06.419Z,97516.00
2022-08-04T23:06:41.504Z,97514.28
2022-08-04T23:09:16.128Z,97520.38
2022-08-04T23:12:08.595Z,97509.97
2022-08-04T23:14:46.146Z,97509.94
2022-08-04T23:17:20.249Z,97503.88
2022-08-04T23:19:57.310Z,97501.28
2022-08-04T23:22:41.003Z,97503.03
2022-08-04T23:25:17.060Z,97505.63
2022-08-04T23:27:52.199Z,97503.06
2022-08-04T23:30:29.921Z,97508.25
2022-08-04T23:33:05.160Z,97501.28
2022-08-04T23:35:38.480Z,97507.41
2022-08-04T23:38:31.714Z,97505.66
2022-08-04T23:41:08.642Z,97510.88
2022-08-04T23:43:55.246Z,97509.16
2022-08-04T23:46:28.814Z,97497.81
2022-08-04T23:49:01.974Z,97497.81
2022-08-04T23:51:35.218Z,97494.31
2022-08-04T23:54:09.095Z,97496.09
2022-08-04T23:56:42.250Z,97505.63
2022-08-04T23:59:51.940Z,97507.38
